createdAt,value
2018-08-20T00:01:35.992Z,57.30
2018-08-20T00:04:09.311Z,57.10
2018-08-20T00:10:13.385Z,57.10
2018-08-20T00:12:43.287Z,57.20
2018-08-20T00:15:15.144Z,57.20
2018-08-20T00:17:44.969Z,57.50
2018-08-20T00:20:14.588Z,57.90
2018-08-20T00:22:43.915Z,57.80
2018-08-20T00:25:20.603Z,57.70
2018-08-20T00:27:50.164Z,57.60
2018-08-20T00:30:21.343Z,58.20
2018-08-20T00:32:52.592Z,58.70
2018-08-20T00:35:27.530Z,59.10
2018-08-20T00:38:03.079Z,60.00
2018-08-20T00:46:21.720Z,58.50
2018-08-20T00:52:29.080Z,58.80
2018-08-20T00:55:14.186Z,58.30
2018-08-20T00:57:44.334Z,58.70
2018-08-20T01:00:18.448Z,58.40
2018-08-20T01:17:14.362Z,60.50
2018-08-20T01:19:51.246Z,60.90
2018-08-20T01:22:29.256Z,60.20
2018-08-20T01:24:59.100Z,60.40
2018-08-20T01:27:31.982Z,60.00
2018-08-20T01:30:02.047Z,61.00
2018-08-20T01:32:33.764Z,61.10
2018-08-20T01:35:18.842Z,61.10
2018-08-20T01:37:50.868Z,61.70
2018-08-20T01:40:20.808Z,60.90
2018-08-20T01:42:51.700Z,61.20
2018-08-20T01:45:21.641Z,62.00
2018-08-20T01:47:52.200Z,61.10
2018-08-20T01:50:22.598Z,61.50
2018-08-20T01:52:51.559Z,62.10
2018-08-20T01:55:21.576Z,61.70
2018-08-20T01:57:50.149Z,62.30
2018-08-20T02:00:19.986Z,61.70
2018-08-20T02:02:55.803Z,61.50
2018-08-20T02:05:29.129Z,62.00
2018-08-20T02:07:59.494Z,62.40
2018-08-20T02:10:28.895Z,63.00
2018-08-20T02:12:58.241Z,63.20
2018-08-20T02:15:27.703Z,63.40
2018-08-20T02:17:57.475Z,63.30
2018-08-20T02:20:26.670Z,63.40
2018-08-20T02:22:58.375Z,64.60
2018-08-20T02:25:34.904Z,65.00
2018-08-20T02:28:06.327Z,66.10
2018-08-20T02:30:39.357Z,66.30
2018-08-20T02:33:09.111Z,66.00
2018-08-20T02:35:37.865Z,66.10
2018-08-20T02:38:10.037Z,65.90
2018-08-20T02:40:42.791Z,66.10
2018-08-20T02:43:13.457Z,65.90
2018-08-20T02:45:45.053Z,66.40
2018-08-20T02:48:13.803Z,66.30
2018-08-20T02:50:43.043Z,66.80
2018-08-20T02:53:17.302Z,66.80
2018-08-20T02:55:51.985Z,66.80
2018-08-20T02:58:20.966Z,67.10
2018-08-20T03:00:51.714Z,67.20
2018-08-20T03:03:20.932Z,67.20
2018-08-20T03:05:50.443Z,67.40
2018-08-20T03:08:19.308Z,67.00
2018-08-20T03:10:49.484Z,67.50
2018-08-20T03:13:18.285Z,67.30
2018-08-20T03:15:47.514Z,67.70
2018-08-20T03:18:18.116Z,67.20
2018-08-20T03:20:46.886Z,67.90
2018-08-20T03:23:22.529Z,68.10
2018-08-20T03:26:14.608Z,68.10
2018-08-20T03:28:44.923Z,68.50
2018-08-20T03:35:24.390Z,68.00
2018-08-20T03:37:52.965Z,69.20
2018-08-20T03:40:23.201Z,69.10
2018-08-20T03:42:53.627Z,68.90
2018-08-20T03:45:23.411Z,69.30
2018-08-20T03:47:52.556Z,69.30
2018-08-20T03:50:23.891Z,70.10
2018-08-20T03:52:56.762Z,70.70
2018-08-20T03:55:28.539Z,70.70
2018-08-20T03:58:06.833Z,71.10
2018-08-20T04:00:37.144Z,69.70
2018-08-20T04:03:08.798Z,70.00
2018-08-20T04:05:38.307Z,70.00
2018-08-20T04:08:07.704Z,70.40
2018-08-20T04:10:40.185Z,70.70
2018-08-20T04:13:10.675Z,70.60
2018-08-20T04:15:41.483Z,70.30
2018-08-20T04:18:14.676Z,69.60
2018-08-20T04:20:43.754Z,69.20
2018-08-20T04:23:18.687Z,68.50
2018-08-20T04:25:49.007Z,68.30
2018-08-20T04:28:18.915Z,68.10
2018-08-20T04:30:49.654Z,67.70
2018-08-20T04:33:18.774Z,67.60
2018-08-20T04:35:49.867Z,66.70
2018-08-20T04:38:22.164Z,66.20
2018-08-20T04:40:52.637Z,64.90
2018-08-20T04:43:27.523Z,65.00
2018-08-20T04:45:57.204Z,65.00
2018-08-20T04:48:28.049Z,65.20
2018-08-20T04:53:44.676Z,63.70
2018-08-20T04:56:15.826Z,64.10
2018-08-20T04:58:45.653Z,63.30
2018-08-20T05:01:15.172Z,63.40
2018-08-20T05:03:44.232Z,63.70
2018-08-20T05:06:12.836Z,63.40
2018-08-20T05:08:43.196Z,63.70
2018-08-20T05:11:15.187Z,62.40
2018-08-20T05:13:50.142Z,61.70
2018-08-20T05:16:50.010Z,61.70
2018-08-20T05:19:38.258Z,60.90
2018-08-20T05:22:08.535Z,61.10
2018-08-20T05:24:47.175Z,60.80
2018-08-20T05:27:23.166Z,61.30
2018-08-20T05:30:15.531Z,61.30
2018-08-20T05:32:59.715Z,61.10
2018-08-20T05:35:56.934Z,59.80
2018-08-20T05:38:31.689Z,58.50
2018-08-20T05:41:55.051Z,57.00
2018-08-20T05:44:48.240Z,56.30
2018-08-20T05:47:24.167Z,55.30
2018-08-20T05:49:55.104Z,55.20
2018-08-20T05:55:00.683Z,53.80
2018-08-20T05:57:31.682Z,53.10
2018-08-20T06:00:01.217Z,52.60
2018-08-20T06:02:37.457Z,53.10
2018-08-20T06:05:08.153Z,53.60
2018-08-20T06:07:39.429Z,52.40
2018-08-20T06:10:10.011Z,51.60
2018-08-20T06:12:43.851Z,50.90
2018-08-20T06:15:17.276Z,50.80
2018-08-20T06:17:46.669Z,50.80
2018-08-20T06:20:17.221Z,50.40
2018-08-20T06:22:47.152Z,50.60
2018-08-20T06:25:16.544Z,49.80
2018-08-20T06:27:47.820Z,49.80
2018-08-20T06:30:21.968Z,49.20
2018-08-20T06:32:53.259Z,49.10
2018-08-20T06:35:24.617Z,48.50
2018-08-20T06:37:53.465Z,47.90
2018-08-20T06:40:23.219Z,47.40
2018-08-20T06:42:52.030Z,47.60
2018-08-20T06:45:22.965Z,47.50
2018-08-20T06:47:53.676Z,46.70
2018-08-20T06:50:22.908Z,47.70
2018-08-20T06:52:56.557Z,47.70
2018-08-20T06:55:25.294Z,46.90
2018-08-20T06:57:56.324Z,46.60
2018-08-20T07:00:25.535Z,46.60
2018-08-20T07:02:57.350Z,46.20
2018-08-20T07:05:28.347Z,45.60
2018-08-20T07:07:59.073Z,45.80
2018-08-20T07:10:38.839Z,44.90
2018-08-20T07:13:26.260Z,45.90
2018-08-20T07:16:25.527Z,46.40
2018-08-20T07:19:18.145Z,46.10
2018-08-20T07:24:25.949Z,45.70
2018-08-20T07:26:57.122Z,45.50
2018-08-20T07:29:37.828Z,45.70
2018-08-20T07:32:13.806Z,45.10
2018-08-20T07:34:46.808Z,45.00
2018-08-20T07:37:20.687Z,45.20
2018-08-20T07:39:53.566Z,44.50
2018-08-20T07:42:23.778Z,45.20
2018-08-20T07:44:56.265Z,45.40
2018-08-20T07:47:26.491Z,44.00
2018-08-20T07:49:55.439Z,43.20
2018-08-20T07:52:24.569Z,42.40
2018-08-20T07:54:53.312Z,42.30
2018-08-20T07:57:22.737Z,43.00
2018-08-20T07:59:54.801Z,43.40
2018-08-20T08:02:24.983Z,43.00
2018-08-20T08:04:55.801Z,42.70
2018-08-20T08:07:25.031Z,42.50
2018-08-20T08:09:54.313Z,41.60
2018-08-20T08:12:23.531Z,41.00
2018-08-20T08:14:53.440Z,41.30
2018-08-20T08:17:23.116Z,40.60
2018-08-20T08:19:53.671Z,40.70
2018-08-20T08:22:22.870Z,41.80
2018-08-20T08:24:53.116Z,41.50
2018-08-20T08:27:22.080Z,40.80
2018-08-20T08:29:51.077Z,40.00
2018-08-20T08:32:19.667Z,39.50
2018-08-20T08:34:48.266Z,39.90
2018-08-20T08:37:17.185Z,38.60
2018-08-20T08:39:48.006Z,38.80
2018-08-20T08:42:18.960Z,40.80
2018-08-20T08:44:48.994Z,40.40
2018-08-20T08:47:18.020Z,39.90
2018-08-20T08:49:46.517Z,40.50
2018-08-20T08:52:15.150Z,40.50
2018-08-20T08:54:44.482Z,41.90
2018-08-20T08:57:13.114Z,40.50
2018-08-20T08:59:42.650Z,41.30
2018-08-20T09:02:11.255Z,40.60
2018-08-20T09:04:41.124Z,40.30
2018-08-20T09:07:13.137Z,41.20
2018-08-20T09:09:42.293Z,44.30
2018-08-20T09:12:11.288Z,42.20
2018-08-20T09:14:39.764Z,42.00
2018-08-20T09:17:09.386Z,45.00
2018-08-20T09:19:39.469Z,45.60
2018-08-20T09:22:11.005Z,46.10
2018-08-20T09:24:39.989Z,46.30
2018-08-20T09:27:13.245Z,46.80
2018-08-20T09:29:42.401Z,47.70
2018-08-20T09:32:11.626Z,47.70
2018-08-20T09:34:42.428Z,48.60
2018-08-20T09:37:13.114Z,49.40
2018-08-20T09:39:41.676Z,49.90
2018-08-20T09:42:10.223Z,50.70
2018-08-20T09:44:40.463Z,51.00
2018-08-20T09:47:10.018Z,51.60
2018-08-20T09:49:38.591Z,51.30
2018-08-20T09:52:07.712Z,51.70
2018-08-20T09:54:37.243Z,52.10
2018-08-20T09:57:08.161Z,52.00
2018-08-20T09:59:42.223Z,51.90
2018-08-20T10:02:13.955Z,52.40
2018-08-20T10:04:47.213Z,52.90
2018-08-20T10:07:26.769Z,53.20
2018-08-20T10:10:02.332Z,52.40
2018-08-20T10:12:32.305Z,53.40
2018-08-20T10:15:07.300Z,53.30
2018-08-20T10:17:36.662Z,52.90
2018-08-20T10:20:09.922Z,53.20
2018-08-20T10:22:51.662Z,53.80
2018-08-20T10:25:45.376Z,53.30
2018-08-20T10:28:15.474Z,53.10
2018-08-20T10:30:49.710Z,53.20
2018-08-20T10:33:22.274Z,53.50
2018-08-20T10:35:51.750Z,53.10
2018-08-20T10:38:22.604Z,52.60
2018-08-20T10:40:53.100Z,53.10
2018-08-20T10:43:36.653Z,53.30
2018-08-20T10:46:10.980Z,53.10
2018-08-20T10:48:40.763Z,53.20
2018-08-20T10:51:10.220Z,52.80
2018-08-20T10:53:43.677Z,52.60
2018-08-20T10:56:14.168Z,52.60
2018-08-20T10:58:48.900Z,51.60
2018-08-20T11:01:25.126Z,50.90
2018-08-20T11:03:59.356Z,49.80
2018-08-20T11:06:29.263Z,49.80
2018-08-20T11:09:04.433Z,49.90
2018-08-20T11:11:34.971Z,49.60
2018-08-20T11:15:51.278Z,50.40
2018-08-20T11:18:22.633Z,51.00
2018-08-20T11:20:53.287Z,49.70
2018-08-20T11:23:24.071Z,49.30
2018-08-20T11:25:57.213Z,48.60
2018-08-20T11:28:27.711Z,48.20
2018-08-20T11:30:59.026Z,47.50
2018-08-20T11:33:31.120Z,46.70
2018-08-20T11:36:35.199Z,45.90
2018-08-20T11:39:30.664Z,45.10
2018-08-20T11:46:21.662Z,39.90
2018-08-20T11:54:52.820Z,43.80
2018-08-20T12:00:16.928Z,45.10
2018-08-20T12:03:23.907Z,45.40
2018-08-20T12:25:29.543Z,45.30
2018-08-20T12:27:58.683Z,49.30
2018-08-20T12:30:31.912Z,49.50
2018-08-20T12:33:02.712Z,49.40
2018-08-20T12:35:32.176Z,49.90
2018-08-20T12:38:02.734Z,50.60
2018-08-20T12:40:32.486Z,50.40
2018-08-20T12:43:01.777Z,50.20
2018-08-20T12:45:32.152Z,50.10
2018-08-20T12:48:16.523Z,49.90
2018-08-20T12:50:45.386Z,50.20
2018-08-20T12:53:14.585Z,49.80
2018-08-20T12:55:44.207Z,50.60
2018-08-20T12:58:13.647Z,51.70
2018-08-20T13:00:45.766Z,52.00
2018-08-20T13:03:16.818Z,51.50
2018-08-20T13:05:48.739Z,51.70
2018-08-20T13:08:19.219Z,51.60
2018-08-20T13:10:50.114Z,51.70
2018-08-20T13:13:21.317Z,52.40
2018-08-20T13:15:50.878Z,52.10
2018-08-20T13:18:19.932Z,52.20
2018-08-20T13:20:52.734Z,53.10
2018-08-20T13:23:24.911Z,52.90
2018-08-20T13:25:55.212Z,53.40
2018-08-20T13:28:24.701Z,52.70
2018-08-20T13:30:54.881Z,52.80
2018-08-20T13:33:25.060Z,53.20
2018-08-20T13:35:58.344Z,52.50
2018-08-20T13:38:31.866Z,52.30
2018-08-20T13:41:03.325Z,51.80
2018-08-20T13:43:32.188Z,51.80
2018-08-20T13:46:02.512Z,51.80
2018-08-20T13:48:36.646Z,52.40
2018-08-20T13:51:09.002Z,52.10
2018-08-20T13:53:40.352Z,52.30
2018-08-20T13:56:10.476Z,52.40
2018-08-20T13:58:39.332Z,52.20
2018-08-20T14:01:09.767Z,52.40
2018-08-20T14:03:39.182Z,52.30
2018-08-20T14:06:09.421Z,52.20
2018-08-20T14:08:38.594Z,52.20
2018-08-20T14:11:10.008Z,51.40
2018-08-20T14:13:39.380Z,50.90
2018-08-20T14:16:09.322Z,51.30
2018-08-20T14:18:38.245Z,50.90
2018-08-20T14:21:13.860Z,51.00
2018-08-20T14:23:44.474Z,51.60
2018-08-20T14:26:14.749Z,52.20
2018-08-20T14:28:44.585Z,52.30
2018-08-20T14:31:16.668Z,51.40
2018-08-20T14:33:46.646Z,51.20
2018-08-20T14:36:16.506Z,51.30
2018-08-20T14:38:45.458Z,51.30
2018-08-20T14:41:16.846Z,51.40
2018-08-20T14:43:49.917Z,52.00
2018-08-20T14:46:23.560Z,52.10
2018-08-20T14:48:58.420Z,52.70
2018-08-20T14:54:03.955Z,53.70
2018-08-20T14:56:33.225Z,54.00
2018-08-20T14:59:03.237Z,54.60
2018-08-20T15:01:32.805Z,54.70
2018-08-20T15:04:01.957Z,55.60
2018-08-20T15:06:32.283Z,55.40
2018-08-20T15:09:01.533Z,55.00
2018-08-20T15:11:32.224Z,55.00
2018-08-20T15:14:03.109Z,55.40
2018-08-20T15:16:33.427Z,55.10
2018-08-20T15:19:03.087Z,55.40
2018-08-20T15:21:32.753Z,55.30
2018-08-20T15:24:01.534Z,55.50
2018-08-20T15:26:32.031Z,55.30
2018-08-20T15:29:00.976Z,54.80
2018-08-20T15:31:30.464Z,54.60
2018-08-20T15:33:59.370Z,54.70
2018-08-20T15:36:28.050Z,54.30
2018-08-20T15:38:57.922Z,54.10
2018-08-20T15:41:27.428Z,54.40
2018-08-20T15:43:56.983Z,54.40
2018-08-20T15:46:26.918Z,55.00
2018-08-20T15:48:56.980Z,55.00
2018-08-20T15:51:28.030Z,55.40
2018-08-20T15:53:59.399Z,54.70
2018-08-20T15:56:34.050Z,54.80
2018-08-20T15:59:03.277Z,54.60
2018-08-20T16:01:31.967Z,54.40
2018-08-20T16:04:01.656Z,55.00
2018-08-20T16:06:32.458Z,55.10
2018-08-20T16:09:01.711Z,55.30
2018-08-20T16:11:32.515Z,55.20
2018-08-20T16:14:16.150Z,55.30
2018-08-20T16:16:49.910Z,55.20
2018-08-20T16:19:24.256Z,55.40
2018-08-20T16:24:44.899Z,55.60
2018-08-20T16:27:13.817Z,55.60
2018-08-20T16:29:42.254Z,55.80
2018-08-20T16:32:10.736Z,55.70
2018-08-20T16:34:39.244Z,55.90
2018-08-20T16:37:08.504Z,56.10
2018-08-20T16:39:37.027Z,55.40
2018-08-20T16:42:05.614Z,55.80
2018-08-20T16:44:34.002Z,55.90
2018-08-20T16:47:02.673Z,55.70
2018-08-20T16:49:31.284Z,56.50
2018-08-20T16:51:59.714Z,56.50
2018-08-20T16:54:28.118Z,56.50
2018-08-20T16:56:56.520Z,56.20
2018-08-20T16:59:25.017Z,56.50
2018-08-20T17:01:54.151Z,56.10
2018-08-20T17:04:38.407Z,56.30
2018-08-20T17:07:06.900Z,56.60
2018-08-20T17:09:35.325Z,56.50
2018-08-20T17:12:03.767Z,56.80
2018-08-20T17:14:32.139Z,56.90
2018-08-20T17:17:00.620Z,56.90
2018-08-20T17:19:29.074Z,57.20
2018-08-20T17:21:57.525Z,57.20
2018-08-20T17:24:31.297Z,57.40
2018-08-20T17:27:01.409Z,58.80
2018-08-20T17:29:30.617Z,57.60
2018-08-20T17:32:00.710Z,57.90
2018-08-20T17:34:29.268Z,57.90
2018-08-20T17:36:57.780Z,58.30
2018-08-20T17:39:26.268Z,58.40
2018-08-20T17:41:54.765Z,58.10
2018-08-20T17:44:26.914Z,58.40
2018-08-20T17:46:55.408Z,58.30
2018-08-20T17:49:31.156Z,58.40
2018-08-20T17:51:59.640Z,58.60
2018-08-20T17:54:29.552Z,59.30
2018-08-20T17:56:58.063Z,58.80
2018-08-20T17:59:26.545Z,59.10
2018-08-20T18:01:54.979Z,59.20
2018-08-20T18:04:23.424Z,59.20
2018-08-20T18:06:54.236Z,59.60
2018-08-20T18:09:22.636Z,59.40
2018-08-20T18:11:52.128Z,59.70
2018-08-20T18:14:21.919Z,59.70
2018-08-20T18:16:50.514Z,60.20
2018-08-20T18:19:18.986Z,59.90
2018-08-20T18:21:47.664Z,59.80
2018-08-20T18:24:17.991Z,60.00
2018-08-20T18:26:48.836Z,60.10
2018-08-20T18:29:17.237Z,60.00
2018-08-20T18:31:45.706Z,60.90
2018-08-20T18:34:14.093Z,60.50
2018-08-20T18:36:42.607Z,60.80
2018-08-20T18:39:12.948Z,61.20
2018-08-20T18:42:16.689Z,61.70
2018-08-20T18:44:47.138Z,62.50
2018-08-20T18:47:17.477Z,62.20
2018-08-20T18:49:51.981Z,62.50
2018-08-20T18:52:21.247Z,62.40
2018-08-20T18:54:51.880Z,62.50
2018-08-20T18:57:24.461Z,63.40
2018-08-20T18:59:53.595Z,62.70
2018-08-20T19:02:34.385Z,63.40
2018-08-20T19:05:02.944Z,62.90
2018-08-20T19:07:31.459Z,62.90
2018-08-20T19:09:59.868Z,62.80
2018-08-20T19:12:28.291Z,63.80
2018-08-20T19:14:57.052Z,64.10
2018-08-20T19:17:27.756Z,63.90
2018-08-20T19:20:01.057Z,65.10
2018-08-20T19:22:30.274Z,64.30
2018-08-20T19:24:58.720Z,64.30
2018-08-20T19:27:32.548Z,63.90
2018-08-20T19:30:11.050Z,64.10
2018-08-20T19:32:39.413Z,63.90
2018-08-20T19:35:08.840Z,64.20
2018-08-20T19:37:38.203Z,65.60
2018-08-20T19:40:07.602Z,64.30
2018-08-20T19:42:36.018Z,65.30
2018-08-20T19:45:06.596Z,65.60
2018-08-20T19:47:35.312Z,66.90
2018-08-20T19:50:04.866Z,67.10
2018-08-20T19:52:33.456Z,68.10
2018-08-20T19:55:07.783Z,68.60
2018-08-20T19:57:36.302Z,68.70
2018-08-20T20:00:07.763Z,69.30
2018-08-20T20:02:36.676Z,69.30
2018-08-20T20:05:06.467Z,69.80
2018-08-20T20:07:36.942Z,69.90
2018-08-20T20:10:08.859Z,69.40
2018-08-20T20:12:42.466Z,70.20
2018-08-20T20:15:11.047Z,70.10
2018-08-20T20:17:39.543Z,70.10
2018-08-20T20:20:08.801Z,70.40
2018-08-20T20:22:37.163Z,70.40
2018-08-20T20:25:06.403Z,70.30
2018-08-20T20:27:34.843Z,70.80
2018-08-20T20:30:04.198Z,70.50
2018-08-20T20:32:32.653Z,70.00
2018-08-20T20:35:01.101Z,70.60
2018-08-20T20:37:29.531Z,71.60
2018-08-20T20:39:58.753Z,71.10
2018-08-20T20:42:27.537Z,71.20
2018-08-20T20:44:56.117Z,70.40
2018-08-20T20:47:24.747Z,71.50
2018-08-20T20:49:53.181Z,71.90
2018-08-20T20:52:21.563Z,71.90
2018-08-20T20:54:50.212Z,71.40
2018-08-20T20:57:18.653Z,71.70
2018-08-20T20:59:47.056Z,72.20
2018-08-20T21:02:15.470Z,73.40
2018-08-20T21:04:43.887Z,71.80
2018-08-20T21:07:16.908Z,71.40
2018-08-20T21:09:48.697Z,71.70
2018-08-20T21:12:19.132Z,72.10
2018-08-20T21:14:48.796Z,72.00
2018-08-20T21:17:17.236Z,72.70
2018-08-20T21:19:45.812Z,72.90
2018-08-20T21:22:14.215Z,72.90
2018-08-20T21:24:43.679Z,72.60
2018-08-20T21:27:29.495Z,72.50
2018-08-20T21:30:00.634Z,72.20
2018-08-20T21:32:29.342Z,72.90
2018-08-20T21:34:57.687Z,73.40
2018-08-20T21:37:26.112Z,73.40
2018-08-20T21:39:54.520Z,73.40
2018-08-20T21:42:27.722Z,73.60
2018-08-20T21:44:57.809Z,73.60
2018-08-20T21:47:27.704Z,73.70
2018-08-20T21:49:56.120Z,74.20
2018-08-20T21:52:25.052Z,74.20
2018-08-20T21:54:54.452Z,74.20
2018-08-20T21:57:22.857Z,74.00
2018-08-20T22:00:05.670Z,74.20
2018-08-20T22:02:35.724Z,74.80
2018-08-20T22:05:04.187Z,75.00
2018-08-20T22:07:33.764Z,74.50
2018-08-20T22:10:02.212Z,74.70
2018-08-20T22:12:32.542Z,74.50
2018-08-20T22:15:00.974Z,74.50
2018-08-20T22:17:29.814Z,75.40
2018-08-20T22:19:58.513Z,74.90
2018-08-20T22:22:27.836Z,75.70
2018-08-20T22:24:58.222Z,75.80
2018-08-20T22:27:27.604Z,76.70
2018-08-20T22:30:00.200Z,75.90
2018-08-20T22:32:29.655Z,76.00
2018-08-20T22:34:58.212Z,76.00
2018-08-20T22:37:26.628Z,75.80
2018-08-20T22:40:00.918Z,75.70
2018-08-20T22:42:41.682Z,76.00
2018-08-20T22:45:11.295Z,77.00
2018-08-20T22:47:39.771Z,76.30
2018-08-20T22:50:08.191Z,77.00
2018-08-20T22:52:36.551Z,76.50
2018-08-20T22:55:06.351Z,76.70
2018-08-20T22:57:34.774Z,76.50
2018-08-20T23:00:08.046Z,76.70
2018-08-20T23:02:37.441Z,76.40
2018-08-20T23:05:06.581Z,77.20
2018-08-20T23:07:34.979Z,76.50
2018-08-20T23:10:04.813Z,76.50
2018-08-20T23:12:38.275Z,77.20
2018-08-20T23:15:06.767Z,77.60
2018-08-20T23:17:35.146Z,77.40
2018-08-20T23:20:04.171Z,77.00
2018-08-20T23:22:33.683Z,77.30
2018-08-20T23:25:02.101Z,78.10
2018-08-20T23:27:34.891Z,77.60
2018-08-20T23:30:03.699Z,77.10
2018-08-20T23:32:32.187Z,77.90
2018-08-20T23:35:00.584Z,77.80
2018-08-20T23:37:28.959Z,77.80
2018-08-20T23:39:57.380Z,77.90
2018-08-20T23:42:25.763Z,77.10
2018-08-20T23:44:55.744Z,78.20
2018-08-20T23:47:24.215Z,78.30
2018-08-20T23:49:52.644Z,77.90
2018-08-20T23:52:21.147Z,78.60
2018-08-20T23:54:49.535Z,79.20
2018-08-20T23:57:17.914Z,79.60
2018-08-20T23:59:46.296Z,78.80
